Time;durP1;ratioP1;P1;durP2;ratioP2;P2;SDS_P1;SDS_P2;PMS_P1;PMS_P2;Temp;Humidity;BMP_temperature;BMP_pressure;BME280_temperature;BME280_humidity;BME280_pressure;Samples;Min_cycle;Max_cycle;Signal;HPM_P1;HPM_P2
2024/01/24 00:04:44;;;;;;;6.00;3.88;;;;;;;-8.38;90.49;102146.16;10256019;29;20071;-68
2024/01/24 00:09:45;;;;;;;6.70;4.57;;;;;;;-8.53;90.74;102152.22;10255333;29;20556;-68
2024/01/24 00:14:46;;;;;;;5.03;3.65;;;;;;;-8.62;91.00;102131.63;10255456;29;20046;-70
2024/01/24 00:19:47;;;;;;;6.28;4.20;;;;;;;-8.91;91.36;102093.03;10255687;29;20138;-68
2024/01/24 00:24:48;;;;;;;7.18;3.75;;;;;;;-8.69;91.04;102137.66;10253861;28;20039;-68
2024/01/24 00:29:49;;;;;;;5.47;3.78;;;;;;;-8.59;91.07;102133.34;10254474;29;20045;-68
2024/01/24 00:34:49;;;;;;;9.98;3.70;;;;;;;-8.70;91.19;102129.91;10254537;29;20043;-69
2024/01/24 00:39:50;;;;;;;6.75;3.47;;;;;;;-8.65;91.39;102117.91;10254237;29;20081;-68
2024/01/24 00:44:51;;;;;;;5.47;3.10;;;;;;;-8.55;91.41;102117.03;10253564;29;20500;-68
2024/01/24 00:49:52;;;;;;;5.90;2.67;;;;;;;-8.48;91.45;102113.56;10254614;28;20558;-68
2024/01/24 00:54:53;;;;;;;4.97;2.75;;;;;;;-8.47;91.53;102109.28;10251892;28;20047;-68
2024/01/24 00:59:53;;;;;;;3.83;2.15;;;;;;;-8.36;90.70;102116.09;10236924;29;20050;-68
2024/01/24 01:04:54;;;;;;;6.45;2.60;;;;;;;-8.60;91.46;102062.06;10253139;28;20043;-68
2024/01/24 01:09:55;;;;;;;4.88;2.40;;;;;;;-8.51;91.07;102064.63;10253071;28;20054;-68
2024/01/24 01:14:56;;;;;;;4.00;2.55;;;;;;;-8.56;91.59;102032.84;10253331;28;20047;-68
2024/01/24 01:19:56;;;;;;;4.80;2.70;;;;;;;-8.11;91.00;102103.97;10252980;28;20045;-68
2024/01/24 01:24:57;;;;;;;3.92;2.50;;;;;;;-8.15;90.80;102102.25;10252893;28;20412;-68
2024/01/24 01:29:58;;;;;;;5.13;2.45;;;;;;;-8.26;90.99;102091.13;10253006;28;20043;-68
2024/01/24 01:34:59;;;;;;;4.80;2.22;;;;;;;-8.21;91.60;102080.81;10252110;28;20061;-68
2024/01/24 01:40:00;;;;;;;5.65;2.63;;;;;;;-8.40;91.34;102064.59;10251365;28;20047;-69
2024/01/24 01:45:03;;;;;;;4.57;2.30;;;;;;;-8.42;90.96;102081.78;10252031;28;20444;-68
2024/01/24 01:50:09;;;;;;;4.72;2.50;;;;;;;-8.41;91.66;102074.03;10248951;28;20051;-68
2024/01/24 01:55:13;;;;;;;4.78;2.40;;;;;;;-8.45;91.33;102071.47;10252598;28;20492;-69
2024/01/24 02:00:20;;;;;;;4.90;2.50;;;;;;;-8.57;91.26;102074.94;10251392;29;20051;-69
2024/01/24 02:05:20;;;;;;;7.63;2.53;;;;;;;-8.76;91.05;102051.81;10250293;29;20067;-69
2024/01/24 02:10:21;;;;;;;5.32;2.70;;;;;;;-8.92;90.87;102057.84;10251907;28;20507;-69
2024/01/24 02:15:22;;;;;;;4.63;2.45;;;;;;;-9.10;91.08;102052.72;10249395;29;20043;-69
2024/01/24 02:20:23;;;;;;;4.47;2.47;;;;;;;-9.27;90.92;102048.44;10251067;29;20054;-68
2024/01/24 02:25:24;;;;;;;7.53;2.92;;;;;;;-9.99;90.91;101947.22;10251617;29;20563;-69
2024/01/24 02:30:25;;;;;;;5.95;2.90;;;;;;;-9.53;91.54;102009.84;10249994;29;20118;-68
2024/01/24 02:35:27;;;;;;;21.63;3.00;;;;;;;-9.51;91.54;102023.56;10244845;28;20415;-69
2024/01/24 02:40:28;;;;;;;8.10;2.67;;;;;;;-9.44;91.43;102027.84;10244128;29;20419;-69
2024/01/24 02:45:28;;;;;;;5.30;2.30;;;;;;;-9.73;91.24;101996.97;10250084;29;20065;-69
2024/01/24 02:50:29;;;;;;;6.40;2.88;;;;;;;-9.64;91.02;102019.25;10256206;28;20479;-69
2024/01/24 02:55:30;;;;;;;6.60;2.85;;;;;;;-9.63;90.94;102039.00;10257793;29;20381;-69
2024/01/24 03:00:30;;;;;;;4.63;2.35;;;;;;;-9.78;90.42;102038.94;10258461;28;20053;-69
2024/01/24 03:05:31;;;;;;;14.02;6.43;;;;;;;-9.92;90.23;102026.09;10252972;28;20035;-67
2024/01/24 03:10:33;;;;;;;8.93;4.90;;;;;;;-10.23;89.92;102038.88;10250544;28;20051;-70
2024/01/24 03:15:35;;;;;;;7.20;3.22;;;;;;;-10.51;89.62;102049.91;10246784;28;20047;-68
2024/01/24 03:20:37;;;;;;;6.25;3.30;;;;;;;-10.89;88.93;102048.81;10256682;28;20538;-69
2024/01/24 03:25:38;;;;;;;8.57;3.60;;;;;;;-11.16;88.85;102040.94;10241197;29;20044;-69
2024/01/24 03:30:38;;;;;;;8.70;4.75;;;;;;;-11.36;87.83;102053.63;10216786;29;20408;-69
2024/01/24 03:35:39;;;;;;;11.63;4.90;;;;;;;-11.70;86.80;102048.19;10217196;29;20048;-68
2024/01/24 03:40:40;;;;;;;11.00;5.13;;;;;;;-11.93;86.49;102049.69;10217266;29;20523;-67
2024/01/24 03:45:41;;;;;;;9.38;4.15;;;;;;;-12.10;86.97;102050.38;10216425;29;20059;-67
2024/01/24 03:50:41;;;;;;;11.68;5.30;;;;;;;-12.29;86.31;102046.75;10217132;29;20123;-66
2024/01/24 03:55:42;;;;;;;11.63;5.22;;;;;;;-12.56;86.13;102052.41;10216910;29;20040;-68
2024/01/24 04:00:43;;;;;;;12.38;5.45;;;;;;;-12.96;86.83;102022.84;10218016;29;20448;-68
2024/01/24 04:05:43;;;;;;;13.90;6.07;;;;;;;-13.18;85.04;102037.03;10255263;28;20616;-67
2024/01/24 04:10:44;;;;;;;14.25;5.60;;;;;;;-13.25;84.89;102071.03;10255195;28;20045;-67
2024/01/24 04:15:45;;;;;;;13.07;4.72;;;;;;;-13.59;85.19;102039.81;10255308;28;20043;-68
2024/01/24 04:20:45;;;;;;;15.98;5.25;;;;;;;-13.37;85.97;102057.22;10252872;28;20495;-68
2024/01/24 04:25:47;;;;;;;10.85;4.70;;;;;;;-13.22;85.99;102050.56;10255165;28;20042;-67
2024/01/24 04:30:47;;;;;;;10.98;4.80;;;;;;;-12.83;86.84;102080.16;10255343;28;20415;-68
2024/01/24 04:35:48;;;;;;;15.15;5.20;;;;;;;-12.90;86.19;102079.22;10254502;28;20051;-69
2024/01/24 04:40:49;;;;;;;12.57;4.72;;;;;;;-12.81;86.79;102083.59;10233598;28;20050;-68
2024/01/24 04:45:50;;;;;;;14.10;5.00;;;;;;;-13.43;85.78;102054.56;10253492;28;20463;-68
2024/01/24 04:50:50;;;;;;;11.25;4.90;;;;;;;-13.26;84.67;102105.97;10254740;28;21321;-68
2024/01/24 04:55:51;;;;;;;12.50;5.47;;;;;;;-13.53;83.76;102083.34;10253534;29;20054;-68
2024/01/24 05:00:52;;;;;;;11.18;4.75;;;;;;;-13.36;83.79;102109.22;10252129;28;20043;-68
2024/01/24 05:05:53;;;;;;;11.57;4.30;;;;;;;-13.38;83.71;102069.97;10253833;28;20043;-68
2024/01/24 05:10:53;;;;;;;14.02;5.63;;;;;;;-13.00;83.62;102091.00;10253273;28;20112;-68
2024/01/24 05:15:54;;;;;;;9.32;4.13;;;;;;;-12.83;83.52;102078.47;10253580;28;20050;-68
2024/01/24 05:20:55;;;;;;;14.80;5.07;;;;;;;-13.02;82.97;102033.84;10251692;29;20054;-68
2024/01/24 05:25:55;;;;;;;12.77;4.25;;;;;;;-12.54;84.24;102060.09;10253066;28;20050;-68
2024/01/24 05:30:56;;;;;;;10.40;4.05;;;;;;;-11.97;85.11;102071.88;10252379;28;20071;-68
2024/01/24 05:35:57;;;;;;;10.35;4.43;;;;;;;-11.45;85.65;102066.38;10252140;28;20043;-68
2024/01/24 05:40:58;;;;;;;12.52;4.53;;;;;;;-11.13;85.36;102059.78;10253035;28;20477;-68
2024/01/24 05:45:59;;;;;;;11.02;4.05;;;;;;;-10.54;85.70;102055.03;10252646;28;20055;-68
2024/01/24 05:50:59;;;;;;;6.47;3.30;;;;;;;-10.07;85.76;102056.91;10252006;28;20078;-68
2024/01/24 05:56:00;;;;;;;4.43;2.20;;;;;;;-9.53;86.05;102048.44;10252032;28;20043;-68
2024/01/24 06:01:01;;;;;;;7.28;2.78;;;;;;;-9.30;84.91;102008.94;10251771;28;20047;-68
2024/01/24 06:06:02;;;;;;;7.20;2.58;;;;;;;-9.16;84.49;101985.78;10251918;28;20062;-68
2024/01/24 06:11:04;;;;;;;9.13;2.30;;;;;;;-8.86;83.09;102037.22;10252356;28;20446;-68
2024/01/24 06:16:05;;;;;;;4.47;2.25;;;;;;;-8.98;83.86;102038.09;10251817;28;20043;-68
2024/01/24 06:21:08;;;;;;;4.63;2.42;;;;;;;-8.97;83.75;102034.69;10250932;28;20047;-69
2024/01/24 06:26:09;;;;;;;4.45;2.35;;;;;;;-8.83;83.30;102037.22;10258068;28;20039;-68
2024/01/24 06:31:09;;;;;;;4.22;1.80;;;;;;;-8.36;83.80;102031.03;10259678;28;20058;-68
2024/01/24 06:36:10;;;;;;;5.00;2.50;;;;;;;-8.45;82.09;101978.69;10258919;28;20129;-68
2024/01/24 06:41:12;;;;;;;8.73;2.80;;;;;;;-8.32;82.41;102031.88;10258473;28;20055;-68
2024/01/24 06:46:13;;;;;;;6.20;2.65;;;;;;;-8.08;82.93;102007.69;10259717;28;20059;-68
2024/01/24 06:51:15;;;;;;;3.85;2.15;;;;;;;-7.83;82.03;101990.34;10258432;28;20511;-68
2024/01/24 06:56:16;;;;;;;3.72;2.20;;;;;;;-7.07;81.63;102011.22;10258776;28;20066;-68
2024/01/24 07:01:17;;;;;;;5.57;2.90;;;;;;;-7.25;79.43;102018.25;10258697;28;20043;-68
2024/01/24 07:06:18;;;;;;;6.35;2.45;;;;;;;-7.10;79.89;101988.00;10258029;28;20050;-69
2024/01/24 07:11:19;;;;;;;5.65;2.78;;;;;;;-7.19;78.97;101979.47;10258563;28;20043;-68
2024/01/24 07:16:20;;;;;;;4.35;2.28;;;;;;;-7.01;78.48;101981.00;10258044;28;20399;-68
2024/01/24 07:21:20;;;;;;;3.15;1.90;;;;;;;-6.80;77.72;101974.75;10257727;28;20567;-69
2024/01/24 07:26:21;;;;;;;5.20;2.35;;;;;;;-6.91;77.44;101935.25;10257756;28;20050;-69
2024/01/24 07:31:22;;;;;;;4.53;2.50;;;;;;;-7.05;76.98;101912.19;10258218;28;20043;-68
2024/01/24 07:36:23;;;;;;;8.95;2.65;;;;;;;-6.81;76.97;101961.88;10256431;28;20045;-68
2024/01/24 07:41:23;;;;;;;6.05;2.60;;;;;;;-6.89;76.83;101960.22;10256904;28;20129;-69
2024/01/24 07:46:25;;;;;;;4.95;2.10;;;;;;;-7.24;75.35;101936.47;10257691;28;20579;-68
2024/01/24 07:51:26;;;;;;;6.80;3.13;;;;;;;-7.14;76.82;101938.13;10257203;28;20507;-68
2024/01/24 07:56:26;;;;;;;5.40;2.80;;;;;;;-7.07;76.24;101918.25;10257091;28;20045;-68
2024/01/24 08:01:27;;;;;;;5.88;2.33;;;;;;;-7.14;75.32;101930.38;10256335;28;20051;-68
2024/01/24 08:06:28;;;;;;;4.93;2.30;;;;;;;-6.95;76.18;101931.84;10256402;28;20502;-69
2024/01/24 08:11:28;;;;;;;4.50;1.95;;;;;;;-6.84;75.07;101926.59;10255577;28;20121;-68
2024/01/24 08:16:29;;;;;;;2.63;1.52;;;;;;;-6.65;75.85;101914.28;10255870;28;20047;-68
2024/01/24 08:21:30;;;;;;;4.82;1.60;;;;;;;-6.82;75.60;101906.75;10255579;28;20047;-69
2024/01/24 08:26:31;;;;;;;7.35;2.10;;;;;;;-6.58;75.39;101918.50;10254956;28;20047;-69
2024/01/24 08:31:31;;;;;;;3.80;1.77;;;;;;;-6.92;75.21;101902.56;10255337;28;20047;-69
2024/01/24 08:36:32;;;;;;;3.75;1.80;;;;;;;-6.85;75.38;101903.31;10254562;28;20046;-68
2024/01/24 08:41:33;;;;;;;5.88;2.20;;;;;;;-7.15;75.07;101888.19;10254076;28;20117;-68
2024/01/24 08:46:34;;;;;;;8.60;1.90;;;;;;;-6.89;75.81;101874.09;10253440;28;20405;-69
2024/01/24 08:51:35;;;;;;;4.57;1.80;;;;;;;-6.52;75.53;101869.31;10254345;28;20047;-69
2024/01/24 08:56:35;;;;;;;3.85;1.88;;;;;;;-6.50;75.51;101807.22;10254700;28;20043;-68
2024/01/24 09:01:36;;;;;;;4.68;2.00;;;;;;;-6.16;74.42;101841.19;10254006;28;20054;-68
2024/01/24 09:06:37;;;;;;;4.07;2.10;;;;;;;-6.09;74.37;101832.44;10253777;28;20051;-69
2024/01/24 09:11:37;;;;;;;3.58;1.80;;;;;;;-6.00;74.31;101800.38;10253309;28;20035;-69
2024/01/24 09:16:38;;;;;;;4.30;1.70;;;;;;;-5.82;73.53;101805.19;10253693;28;20512;-69
2024/01/24 09:21:39;;;;;;;7.13;1.90;;;;;;;-5.78;73.47;101798.22;10253193;28;20492;-68
2024/01/24 09:26:40;;;;;;;4.57;1.70;;;;;;;-5.75;73.22;101798.16;10253727;28;20482;-69
2024/01/24 09:31:43;;;;;;;9.65;1.77;;;;;;;-5.85;72.57;101750.06;10252320;28;20122;-69
2024/01/24 09:36:44;;;;;;;3.13;1.73;;;;;;;-5.86;72.18;101788.03;10253554;28;20500;-69
2024/01/24 09:41:45;;;;;;;6.00;1.98;;;;;;;-5.82;72.39;101789.66;10252285;28;20054;-69
2024/01/24 09:46:48;;;;;;;5.80;1.58;;;;;;;-5.76;72.06;101786.97;10252379;28;20094;-69
2024/01/24 09:51:50;;;;;;;3.53;1.30;;;;;;;-5.48;71.95;101777.81;10252596;28;20510;-69
2024/01/24 09:56:52;;;;;;;2.83;1.30;;;;;;;-5.59;71.98;101729.69;10252378;28;20082;-69
2024/01/24 10:01:53;;;;;;;2.72;1.48;;;;;;;-5.56;71.34;101742.56;10252556;28;20404;-69
2024/01/24 10:06:54;;;;;;;3.03;1.30;;;;;;;-5.79;71.58;101714.53;10251949;28;20050;-69
2024/01/24 10:11:55;;;;;;;3.50;1.20;;;;;;;-5.30;72.05;101746.34;10252569;28;20131;-69
2024/01/24 10:16:57;;;;;;;4.68;1.55;;;;;;;-5.34;70.38;101748.16;10251923;28;20134;-69
2024/01/24 10:21:58;;;;;;;4.60;1.13;;;;;;;-5.55;71.22;101726.16;10251206;28;20046;-69
2024/01/24 10:26:58;;;;;;;3.80;1.50;;;;;;;-5.52;71.01;101730.41;10251042;28;20054;-69
2024/01/24 10:31:59;;;;;;;3.33;1.40;;;;;;;-5.96;70.38;101716.63;10250812;28;20106;-69
2024/01/24 10:37:00;;;;;;;5.22;1.45;;;;;;;-5.84;71.66;101737.06;10250916;28;20131;-69
2024/01/24 10:42:06;;;;;;;4.60;1.02;;;;;;;-5.76;70.80;101677.41;10251622;28;20043;-69
2024/01/24 10:47:09;;;;;;;3.55;1.17;;;;;;;-6.05;70.65;101678.00;10251486;28;20149;-69
2024/01/24 10:52:09;;;;;;;3.13;1.30;;;;;;;-5.96;71.80;101701.09;10250514;28;20047;-68
2024/01/24 10:57:14;;;;;;;4.53;1.42;;;;;;;-6.13;71.22;101695.41;10251123;28;20063;-69
2024/01/24 11:02:15;;;;;;;5.05;1.73;;;;;;;-6.17;72.05;101688.59;10250986;28;20043;-69
2024/01/24 11:07:26;;;;;;;4.30;1.48;;;;;;;-6.25;72.11;101681.84;10250662;28;20039;-69
2024/01/24 11:12:27;;;;;;;4.75;1.88;;;;;;;-6.37;72.74;101692.41;10256608;28;20050;-69
2024/01/24 11:17:28;;;;;;;8.82;2.05;;;;;;;-6.29;73.12;101705.19;10257454;28;20050;-69
2024/01/24 11:22:29;;;;;;;5.32;2.20;;;;;;;-6.28;73.55;101704.28;10257706;28;20499;-69
2024/01/24 11:27:34;;;;;;;6.97;2.03;;;;;;;-6.24;73.31;101693.03;10257192;28;20035;-69
2024/01/24 11:32:44;;;;;;;8.93;2.05;;;;;;;-6.27;72.29;101700.84;10257866;28;20039;-70
2024/01/24 11:37:45;;;;;;;6.25;1.98;;;;;;;-6.92;73.19;101613.22;10257034;28;20129;-69
2024/01/24 11:42:56;;;;;;;5.22;2.03;;;;;;;-6.93;71.94;101643.38;10256913;28;20142;-69
2024/01/24 11:47:57;;;;;;;5.03;1.70;;;;;;;-6.70;72.13;101712.78;10256422;28;20036;-69
2024/01/24 11:52:59;;;;;;;5.25;1.80;;;;;;;-6.78;71.67;101682.75;10257322;29;20047;-69
2024/01/24 11:58:02;;;;;;;5.18;1.30;;;;;;;-6.76;71.64;101696.47;10256041;28;20046;-69
2024/01/24 12:03:05;;;;;;;4.80;1.50;;;;;;;-7.22;71.68;101636.06;10256152;28;20043;-69
2024/01/24 12:08:07;;;;;;;3.35;1.35;;;;;;;-7.35;71.63;101627.66;10256224;28;20043;-69
2024/01/24 12:13:09;;;;;;;3.50;1.20;;;;;;;-7.38;70.59;101648.38;10256008;28;20035;-69
2024/01/24 12:18:13;;;;;;;3.65;1.30;;;;;;;-7.30;70.61;101697.28;10254751;28;20479;-70
2024/01/24 12:23:14;;;;;;;5.03;1.63;;;;;;;-7.70;71.38;101656.53;10247755;28;20402;-70
2024/01/24 12:28:16;;;;;;;4.57;1.75;;;;;;;-7.40;71.65;101691.41;10255875;29;20039;-69
2024/01/24 12:33:17;;;;;;;9.45;2.03;;;;;;;-7.53;71.55;101671.81;10252493;29;20043;-69
2024/01/24 12:38:18;;;;;;;4.68;1.67;;;;;;;-7.78;72.07;101675.56;10254770;28;20047;-69
2024/01/24 12:43:21;;;;;;;6.10;2.10;;;;;;;-7.75;72.68;101688.41;10253503;28;20059;-69
2024/01/24 12:48:22;;;;;;;5.13;2.00;;;;;;;-7.87;73.13;101698.00;10231406;29;20047;-70
2024/01/24 12:53:23;;;;;;;5.75;2.08;;;;;;;-8.13;73.68;101684.56;10255310;29;20039;-69
2024/01/24 12:58:23;;;;;;;6.40;2.78;;;;;;;-8.30;74.43;101702.78;10253665;28;20412;-69
2024/01/24 13:03:24;;;;;;;6.80;2.65;;;;;;;-8.57;74.74;101691.03;10252063;28;20043;-69
2024/01/24 13:08:25;;;;;;;4.93;2.15;;;;;;;-8.80;75.35;101668.03;10253355;28;20042;-69
2024/01/24 13:13:25;;;;;;;18.10;2.97;;;;;;;-9.14;75.48;101636.56;10254257;29;20086;-69
2024/01/24 13:18:26;;;;;;;7.60;2.33;;;;;;;-9.10;76.08;101672.56;10241539;29;20039;-69
2024/01/24 13:23:27;;;;;;;18.77;2.60;;;;;;;-9.17;76.69;101676.06;10234461;29;20039;-68
2024/01/24 13:28:28;;;;;;;5.68;2.40;;;;;;;-9.61;76.82;101615.44;10221865;29;20048;-69
2024/01/24 13:33:28;;;;;;;6.32;2.25;;;;;;;-9.53;76.84;101649.69;10212967;28;20054;-68
2024/01/24 13:38:31;;;;;;;9.43;2.60;;;;;;;-9.70;77.17;101665.19;10243039;29;20043;-69
2024/01/24 13:43:32;;;;;;;11.57;2.60;;;;;;;-9.93;77.52;101660.19;10246069;29;20059;-68
2024/01/24 13:48:33;;;;;;;7.55;2.58;;;;;;;-10.17;78.20;101661.13;10236674;29;20043;-68
2024/01/24 13:53:34;;;;;;;7.38;2.70;;;;;;;-10.40;78.35;101640.66;10247467;28;20047;-68
2024/01/24 13:58:35;;;;;;;7.10;2.15;;;;;;;-10.46;78.65;101650.09;10249427;28;20050;-68
2024/01/24 14:03:35;;;;;;;5.97;2.70;;;;;;;-10.53;79.09;101661.22;10252103;28;20050;-68
2024/01/24 14:08:37;;;;;;;11.75;2.60;;;;;;;-10.56;79.14;101669.75;10250627;28;20047;-67
2024/01/24 14:13:37;;;;;;;6.63;2.70;;;;;;;-10.56;79.39;101669.75;10251689;28;20031;-68
2024/01/24 14:18:38;;;;;;;5.35;2.50;;;;;;;-10.91;79.03;101636.44;10252036;28;20043;-68
2024/01/24 14:23:42;;;;;;;6.53;2.60;;;;;;;-10.72;79.57;101679.22;10250624;29;20054;-68
2024/01/24 14:28:43;;;;;;;5.00;2.15;;;;;;;-10.78;79.19;101674.06;10244485;28;20079;-69
2024/01/24 14:33:44;;;;;;;4.85;2.17;;;;;;;-10.91;79.28;101662.13;10249165;29;20055;-67
2024/01/24 14:38:45;;;;;;;7.57;2.88;;;;;;;-11.05;79.37;101687.75;10251752;28;20090;-67
2024/01/24 14:43:46;;;;;;;5.82;2.15;;;;;;;-11.33;79.49;101679.19;10228495;29;20062;-66
2024/01/24 14:48:46;;;;;;;5.57;1.83;;;;;;;-11.42;79.61;101689.41;10218892;29;20043;-71
2024/01/24 14:53:47;;;;;;;5.75;2.40;;;;;;;-11.67;79.85;101673.94;10219134;29;20487;-68
2024/01/24 14:58:48;;;;;;;7.07;2.08;;;;;;;-11.69;80.08;101685.91;10218839;29;20044;-67
2024/01/24 15:03:49;;;;;;;4.72;1.77;;;;;;;-12.09;80.03;101634.53;10218335;29;20047;-67
2024/01/24 15:08:50;;;;;;;5.03;1.92;;;;;;;-12.02;80.26;101655.91;10217963;29;20501;-66
2024/01/24 15:13:50;;;;;;;5.35;1.95;;;;;;;-11.87;80.70;101673.06;10218077;29;20432;-67
2024/01/24 15:18:51;;;;;;;5.07;1.95;;;;;;;-11.87;80.55;101678.19;10216552;29;20043;-69
2024/01/24 15:23:52;;;;;;;8.15;2.13;;;;;;;-11.87;80.66;101675.63;10217740;29;20043;-69
2024/01/24 15:28:53;;;;;;;5.70;1.90;;;;;;;-11.89;80.50;101679.88;10217848;29;20559;-69
2024/01/24 15:33:54;;;;;;;7.90;1.92;;;;;;;-12.24;80.79;101616.53;10217366;29;20131;-69
2024/01/24 15:38:55;;;;;;;7.63;3.03;;;;;;;-12.22;80.66;101622.53;10217861;29;20131;-69
2024/01/24 15:43:55;;;;;;;6.07;2.33;;;;;;;-12.17;80.40;101633.66;10241533;29;20058;-69
2024/01/24 15:48:56;;;;;;;9.73;3.53;;;;;;;-12.71;80.28;101596.63;10253248;28;20126;-69
2024/01/24 15:53:57;;;;;;;9.93;3.35;;;;;;;-12.21;80.49;101667.75;10247507;29;20102;-67
2024/01/24 15:58:57;;;;;;;8.30;2.85;;;;;;;-12.67;80.49;101595.84;10255286;28;20071;-69
2024/01/24 16:03:58;;;;;;;7.00;3.08;;;;;;;-12.35;80.77;101643.78;10253841;28;20043;-70
2024/01/24 16:08:59;;;;;;;18.25;2.90;;;;;;;-12.72;80.63;101600.06;10255617;28;20046;-69
2024/01/24 16:13:59;;;;;;;6.63;3.08;;;;;;;-12.74;80.30;101614.53;10255112;29;20035;-70
2024/01/24 16:19:00;;;;;;;5.82;2.30;;;;;;;-12.61;80.66;101639.38;10255831;29;20043;-69
2024/01/24 16:24:01;;;;;;;7.47;2.67;;;;;;;-12.76;80.40;101627.34;10255863;28;20129;-71
2024/01/24 16:29:02;;;;;;;14.77;4.43;;;;;;;-12.62;81.01;101642.78;10255821;29;20070;-69
2024/01/24 16:34:02;;;;;;;7.50;3.08;;;;;;;-12.83;80.97;101588.88;10254269;29;20055;-69
2024/01/24 16:39:04;;;;;;;17.73;4.32;;;;;;;-12.78;80.53;101616.22;10252702;28;20043;-69
2024/01/24 16:44:04;;;;;;;11.15;3.40;;;;;;;-13.30;80.63;101559.63;10254487;28;20059;-69
2024/01/24 16:49:05;;;;;;;8.60;3.05;;;;;;;-13.36;80.65;101547.66;10250703;29;20047;-72
2024/01/24 16:54:06;;;;;;;7.32;2.75;;;;;;;-13.65;80.20;101519.28;10254457;29;20488;-69
2024/01/24 16:59:06;;;;;;;4.90;1.90;;;;;;;-13.40;81.06;101589.38;10253373;29;20066;-70
2024/01/24 17:04:07;;;;;;;7.55;2.60;;;;;;;-13.36;81.48;101578.31;10253891;29;20040;-69
2024/01/24 17:09:08;;;;;;;9.43;2.95;;;;;;;-13.57;80.99;101566.22;10252725;28;20147;-69
2024/01/24 17:14:09;;;;;;;6.32;2.50;;;;;;;-13.44;81.38;101566.31;10252976;29;20043;-69
2024/01/24 17:19:10;;;;;;;6.13;2.50;;;;;;;-13.44;81.43;101568.88;10253382;29;20731;-69
2024/01/24 17:24:12;;;;;;;6.57;2.38;;;;;;;-13.66;81.78;101519.28;10251922;29;20055;-70
2024/01/24 17:29:13;;;;;;;19.10;6.75;;;;;;;-13.63;81.67;101522.72;10253632;28;20046;-69
2024/01/24 17:34:15;;;;;;;9.52;3.67;;;;;;;-13.75;81.36;101517.50;10252240;28;20043;-69
2024/01/24 17:39:16;;;;;;;19.20;5.50;;;;;;;-13.79;81.48;101490.19;10249708;29;20495;-69
2024/01/24 17:44:17;;;;;;;14.90;4.93;;;;;;;-13.49;81.13;101534.75;10250786;28;20146;-70
2024/01/24 17:49:18;;;;;;;9.90;3.90;;;;;;;-13.46;81.09;101524.53;10251233;28;20047;-69
2024/01/24 17:54:18;;;;;;;9.35;2.70;;;;;;;-13.67;80.52;101530.34;10250124;29;20035;-69
2024/01/24 17:59:19;;;;;;;9.63;2.90;;;;;;;-14.05;80.53;101460.19;10249690;28;20141;-70
2024/01/24 18:04:20;;;;;;;10.48;2.67;;;;;;;-13.63;80.66;101517.59;10251011;28;20043;-70
2024/01/24 18:09:21;;;;;;;11.02;3.72;;;;;;;-13.89;80.15;101516.50;10249943;29;20480;-69
2024/01/24 18:14:21;;;;;;;13.77;3.55;;;;;;;-13.82;80.81;101501.28;10249655;29;20130;-69
2024/01/24 18:19:22;;;;;;;6.70;2.67;;;;;;;-13.68;81.15;101509.03;10248559;29;20122;-69
2024/01/24 18:24:23;;;;;;;9.43;3.13;;;;;;;-13.93;81.00;101467.13;10248692;28;20066;-69
2024/01/24 18:29:24;;;;;;;12.18;3.60;;;;;;;-13.57;81.41;101511.69;10249869;28;20039;-69
2024/01/24 18:34:25;;;;;;;9.18;2.80;;;;;;;-13.87;80.11;101491.84;10248552;28;20035;-69
2024/01/24 18:39:25;;;;;;;5.10;2.17;;;;;;;-14.04;79.93;101495.09;10248818;28;20086;-69
2024/01/24 18:44:26;;;;;;;7.18;2.50;;;;;;;-14.49;80.14;101436.78;10199496;28;1471234;-68
2024/01/24 18:49:27;;;;;;;8.23;2.22;;;;;;;-14.32;80.14;101503.31;10250530;28;20040;-69
2024/01/24 18:54:28;;;;;;;22.23;7.18;;;;;;;-14.16;81.29;101497.53;10251789;29;20051;-69
2024/01/24 18:59:29;;;;;;;16.63;5.65;;;;;;;-14.06;81.26;101503.56;10251298;29;20036;-69
2024/01/24 19:04:29;;;;;;;7.82;3.78;;;;;;;-14.30;80.49;101504.19;10249580;29;20067;-69
2024/01/24 19:09:30;;;;;;;20.65;6.45;;;;;;;-14.33;80.25;101507.53;10250331;29;20051;-69
2024/01/24 19:14:31;;;;;;;12.90;4.43;;;;;;;-14.59;80.49;101473.28;10250289;28;20039;-69
2024/01/24 19:19:31;;;;;;;10.20;4.53;;;;;;;-14.67;80.60;101472.34;10249389;29;20047;-69
2024/01/24 19:24:33;;;;;;;9.00;3.75;;;;;;;-14.48;80.16;101509.94;10248565;28;20074;-69
2024/01/24 19:29:34;;;;;;;6.78;3.33;;;;;;;-14.69;79.98;101496.94;10244629;28;20055;-69
2024/01/24 19:34:35;;;;;;;9.45;3.20;;;;;;;-14.92;79.09;101476.25;10255700;28;20039;-69
2024/01/24 19:39:36;;;;;;;8.43;2.95;;;;;;;-14.90;79.93;101479.69;10257764;29;20085;-69
2024/01/24 19:44:37;;;;;;;8.60;3.03;;;;;;;-14.84;80.18;101437.28;10257547;28;20074;-69
2024/01/24 19:49:37;;;;;;;7.22;3.15;;;;;;;-14.67;79.52;101459.56;10256984;28;20047;-69
2024/01/24 19:54:38;;;;;;;9.75;4.20;;;;;;;-14.80;79.73;101416.09;10255888;28;20415;-69
2024/01/24 19:59:39;;;;;;;12.32;4.72;;;;;;;-14.53;80.10;101435.94;10257395;29;20043;-69
2024/01/24 20:04:40;;;;;;;25.80;8.30;;;;;;;-14.12;80.85;101460.97;10256888;29;20039;-69
2024/01/24 20:09:40;;;;;;;22.65;7.28;;;;;;;-14.31;80.63;101402.94;10255647;29;20075;-69
2024/01/24 20:14:41;;;;;;;22.98;7.70;;;;;;;-14.53;80.02;101389.16;10255948;29;20170;-69
2024/01/24 20:19:44;;;;;;;20.38;6.00;;;;;;;-14.50;79.32;101448.69;10255963;29;20138;-69
2024/01/24 20:24:45;;;;;;;13.63;5.07;;;;;;;-14.61;79.37;101449.44;10255490;29;20102;-69
2024/01/24 20:29:46;;;;;;;11.75;3.92;;;;;;;-14.72;79.75;101421.25;10255875;29;20102;-69
2024/01/24 20:34:50;;;;;;;8.70;3.42;;;;;;;-14.74;79.68;101416.16;10255851;29;20098;-69
2024/01/24 20:39:51;;;;;;;;;;;;;;;-14.60;79.17;101430.75;10256102;29;20051;-68
2024/01/24 20:44:52;;;;;;;11.30;3.35;;;;;;;-14.72;78.89;101422.09;10254289;28;19922;-69
2024/01/24 20:49:54;;;;;;;8.98;2.70;;;;;;;-14.93;78.78;101415.91;10255320;28;20149;-69
2024/01/24 20:54:55;;;;;;;7.20;2.43;;;;;;;-14.99;79.10;101411.59;10254465;28;20051;-69
2024/01/24 20:59:56;;;;;;;5.40;2.55;;;;;;;-15.11;79.38;101401.25;10254375;29;20054;-69
2024/01/24 21:04:56;;;;;;;7.97;3.47;;;;;;;-14.98;79.67;101403.13;10254429;29;20039;-69
2024/01/24 21:09:57;;;;;;;16.48;3.53;;;;;;;-15.21;79.09;101354.41;10253951;29;20087;-69
2024/01/24 21:14:58;;;;;;;11.10;3.33;;;;;;;-15.01;80.00;101362.31;10254201;29;20051;-69
2024/01/24 21:19:59;;;;;;;6.47;2.50;;;;;;;-14.97;80.52;101333.44;10252951;29;20078;-69
2024/01/24 21:25:00;;;;;;;8.65;2.65;;;;;;;-14.85;80.89;101332.72;10252466;29;20077;-69
2024/01/24 21:30:01;;;;;;;5.35;2.15;;;;;;;-14.62;81.38;101328.69;10251869;29;20504;-69
2024/01/24 21:35:02;;;;;;;7.05;2.67;;;;;;;-14.49;81.56;101319.41;10253140;29;20081;-69
2024/01/24 21:40:03;;;;;;;11.15;3.08;;;;;;;-14.34;81.84;101326.34;10252667;29;20050;-69
2024/01/24 21:45:05;;;;;;;15.30;4.78;;;;;;;-14.09;82.49;101324.81;10253255;29;20067;-69
2024/01/24 21:50:06;;;;;;;11.48;4.13;;;;;;;-14.11;82.99;101283.13;10251918;29;20511;-69
2024/01/24 21:55:07;;;;;;;10.77;4.25;;;;;;;-14.18;84.08;101255.84;10252282;28;20047;-69
2024/01/24 22:00:09;;;;;;;11.68;4.28;;;;;;;-13.50;85.17;101303.88;10251605;28;20065;-69
2024/01/24 22:05:10;;;;;;;7.45;3.47;;;;;;;-13.31;85.51;101303.94;10252783;29;20043;-69
2024/01/24 22:10:11;;;;;;;10.90;3.85;;;;;;;-13.29;86.22;101269.88;10251706;29;20043;-69
2024/01/24 22:15:12;;;;;;;9.65;4.22;;;;;;;-13.41;86.09;101241.72;10252001;28;20047;-69
2024/01/24 22:20:13;;;;;;;9.77;4.40;;;;;;;-13.02;86.55;101281.00;10251154;28;20042;-69
2024/01/24 22:25:13;;;;;;;9.68;3.60;;;;;;;-12.77;87.05;101275.09;10252200;28;20070;-69
2024/01/24 22:30:14;;;;;;;12.00;4.20;;;;;;;-12.74;87.03;101252.06;10250331;29;20035;-69
2024/01/24 22:35:15;;;;;;;8.95;3.30;;;;;;;-12.57;86.95;101272.53;10251933;28;20043;-69
2024/01/24 22:40:16;;;;;;;7.05;3.00;;;;;;;-12.29;87.09;101285.31;10251334;29;20050;-69
2024/01/24 22:45:17;;;;;;;6.72;2.97;;;;;;;-12.08;87.24;101290.44;10251701;29;20114;-69
2024/01/24 22:50:18;;;;;;;7.95;2.97;;;;;;;-11.69;86.91;101287.72;10251601;29;20488;-69
2024/01/24 22:55:18;;;;;;;7.78;3.50;;;;;;;-11.42;87.14;101304.75;10251201;28;20067;-69